sensor_id;sensor_type;location;lat;lon;timestamp;pressure;altitude;pressure_sealevel;temperature;humidity
41334;BME280;27078;46.428;6.256;2023-03-25T00:02:06;96429.63;;;9.98;100.00
41334;BME280;27078;46.428;6.256;2023-03-25T00:04:32;96452.22;;;10.12;100.00
41334;BME280;27078;46.428;6.256;2023-03-25T00:06:59;96431.94;;;10.13;100.00
41334;BME280;27078;46.428;6.256;2023-03-25T00:09:25;96435.97;;;9.86;100.00
41334;BME280;27078;46.428;6.256;2023-03-25T00:11:51;96442.03;;;9.67;100.00
41334;BME280;27078;46.428;6.256;2023-03-25T00:14:17;96445.22;;;9.50;100.00
41334;BME280;27078;46.428;6.256;2023-03-25T00:16:43;96452.56;;;9.25;100.00
41334;BME280;27078;46.428;6.256;2023-03-25T00:19:16;96454.34;;;9.25;100.00
41334;BME280;27078;46.428;6.256;2023-03-25T00:21:41;96452.50;;;9.57;100.00
41334;BME280;27078;46.428;6.256;2023-03-25T00:24:10;96454.53;;;9.75;100.00
41334;BME280;27078;46.428;6.256;2023-03-25T00:26:37;96451.09;;;9.53;100.00
41334;BME280;27078;46.428;6.256;2023-03-25T00:29:07;96459.44;;;9.58;100.00
41334;BME280;27078;46.428;6.256;2023-03-25T00:31:32;96455.84;;;9.38;100.00
41334;BME280;27078;46.428;6.256;2023-03-25T00:33:58;96449.75;;;9.38;100.00
41334;BME280;27078;46.428;6.256;2023-03-25T00:36:23;96456.75;;;9.28;100.00
41334;BME280;27078;46.428;6.256;2023-03-25T00:38:49;96456.97;;;9.25;100.00
41334;BME280;27078;46.428;6.256;2023-03-25T00:41:25;96460.84;;;9.21;100.00
41334;BME280;27078;46.428;6.256;2023-03-25T00:43:53;96454.41;;;9.13;100.00
41334;BME280;27078;46.428;6.256;2023-03-25T00:46:19;96470.22;;;9.13;100.00
41334;BME280;27078;46.428;6.256;2023-03-25T00:48:44;96469.78;;;9.08;100.00
41334;BME280;27078;46.428;6.256;2023-03-25T00:51:10;96477.59;;;8.99;100.00
41334;BME280;27078;46.428;6.256;2023-03-25T00:53:39;96471.03;;;8.93;100.00
41334;BME280;27078;46.428;6.256;2023-03-25T00:56:05;96460.13;;;8.98;100.00
41334;BME280;27078;46.428;6.256;2023-03-25T00:58:31;96473.09;;;8.78;100.00
41334;BME280;27078;46.428;6.256;2023-03-25T01:00:56;96486.94;;;8.48;100.00
41334;BME280;27078;46.428;6.256;2023-03-25T01:03:23;96479.53;;;8.19;100.00
41334;BME280;27078;46.428;6.256;2023-03-25T01:05:50;96480.72;;;8.04;100.00
41334;BME280;27078;46.428;6.256;2023-03-25T01:08:19;96478.31;;;7.89;100.00
41334;BME280;27078;46.428;6.256;2023-03-25T01:10:50;96464.94;;;7.70;100.00
41334;BME280;27078;46.428;6.256;2023-03-25T01:13:15;96460.38;;;7.61;100.00
41334;BME280;27078;46.428;6.256;2023-03-25T01:15:41;96459.53;;;7.49;100.00
41334;BME280;27078;46.428;6.256;2023-03-25T01:18:06;96474.72;;;7.45;100.00
41334;BME280;27078;46.428;6.256;2023-03-25T01:20:31;96472.19;;;7.44;100.00
41334;BME280;27078;46.428;6.256;2023-03-25T01:22:56;96466.78;;;7.34;100.00
41334;BME280;27078;46.428;6.256;2023-03-25T01:25:22;96461.03;;;7.29;100.00
41334;BME280;27078;46.428;6.256;2023-03-25T01:27:47;96460.66;;;7.22;100.00
41334;BME280;27078;46.428;6.256;2023-03-25T01:30:13;96459.34;;;7.17;100.00
41334;BME280;27078;46.428;6.256;2023-03-25T01:32:38;96453.53;;;7.00;100.00
41334;BME280;27078;46.428;6.256;2023-03-25T01:35:04;96465.94;;;6.98;100.00
41334;BME280;27078;46.428;6.256;2023-03-25T01:37:30;96468.56;;;6.98;100.00
41334;BME280;27078;46.428;6.256;2023-03-25T01:39:58;96460.03;;;7.07;100.00
41334;BME280;27078;46.428;6.256;2023-03-25T01:42:23;96463.97;;;7.13;100.00
41334;BME280;27078;46.428;6.256;2023-03-25T01:47:17;96454.16;;;7.39;100.00
41334;BME280;27078;46.428;6.256;2023-03-25T01:49:45;96440.75;;;7.42;100.00
41334;BME280;27078;46.428;6.256;2023-03-25T01:52:14;96428.22;;;7.46;100.00
41334;BME280;27078;46.428;6.256;2023-03-25T01:54:42;96451.28;;;7.42;100.00
41334;BME280;27078;46.428;6.256;2023-03-25T01:57:09;96461.66;;;7.44;100.00
41334;BME280;27078;46.428;6.256;2023-03-25T01:59:37;96458.78;;;7.36;100.00
41334;BME280;27078;46.428;6.256;2023-03-25T02:02:04;96466.09;;;7.43;100.00
41334;BME280;27078;46.428;6.256;2023-03-25T02:04:47;96472.34;;;7.53;100.00
41334;BME280;27078;46.428;6.256;2023-03-25T02:07:24;96473.31;;;7.75;100.00
41334;BME280;27078;46.428;6.256;2023-03-25T02:10:00;96486.47;;;7.98;100.00
41334;BME280;27078;46.428;6.256;2023-03-25T02:12:27;96491.72;;;8.20;100.00
41334;BME280;27078;46.428;6.256;2023-03-25T02:14:52;96478.78;;;8.40;100.00
41334;BME280;27078;46.428;6.256;2023-03-25T02:39:13;96447.00;;;7.64;100.00
41334;BME280;27078;46.428;6.256;2023-03-25T02:46:55;96438.78;;;7.68;100.00
41334;BME280;27078;46.428;6.256;2023-03-25T02:49:29;96447.00;;;7.64;100.00
41334;BME280;27078;46.428;6.256;2023-03-25T02:52:02;96456.44;;;7.55;100.00
41334;BME280;27078;46.428;6.256;2023-03-25T02:54:31;96444.16;;;7.67;100.00
41334;BME280;27078;46.428;6.256;2023-03-25T02:56:58;96448.19;;;7.93;100.00
41334;BME280;27078;46.428;6.256;2023-03-25T02:59:26;96445.38;;;7.85;100.00
41334;BME280;27078;46.428;6.256;2023-03-25T03:01:55;96460.63;;;7.91;100.00
41334;BME280;27078;46.428;6.256;2023-03-25T03:04:23;96467.00;;;8.00;100.00
41334;BME280;27078;46.428;6.256;2023-03-25T03:06:49;96471.75;;;7.95;100.00
41334;BME280;27078;46.428;6.256;2023-03-25T03:09:37;96480.84;;;7.80;100.00
41334;BME280;27078;46.428;6.256;2023-03-25T03:14:52;96462.53;;;7.89;100.00
41334;BME280;27078;46.428;6.256;2023-03-25T03:19:55;96460.75;;;8.12;100.00
41334;BME280;27078;46.428;6.256;2023-03-25T03:22:33;96448.66;;;8.44;100.00
41334;BME280;27078;46.428;6.256;2023-03-25T03:31:00;96466.13;;;8.33;100.00
41334;BME280;27078;46.428;6.256;2023-03-25T03:36:16;96467.47;;;8.05;100.00
41334;BME280;27078;46.428;6.256;2023-03-25T03:38:56;96455.63;;;8.00;100.00
41334;BME280;27078;46.428;6.256;2023-03-25T03:41:25;96447.03;;;8.09;100.00
41334;BME280;27078;46.428;6.256;2023-03-25T03:43:57;96450.00;;;7.93;100.00
41334;BME280;27078;46.428;6.256;2023-03-25T03:46:32;96439.59;;;7.91;100.00
41334;BME280;27078;46.428;6.256;2023-03-25T03:49:00;96422.63;;;7.84;100.00
41334;BME280;27078;46.428;6.256;2023-03-25T03:54:12;96422.50;;;8.08;100.00
41334;BME280;27078;46.428;6.256;2023-03-25T03:56:41;96424.28;;;8.08;100.00
41334;BME280;27078;46.428;6.256;2023-03-25T03:59:26;96442.84;;;7.84;100.00
41334;BME280;27078;46.428;6.256;2023-03-25T04:02:10;96462.81;;;7.75;100.00
41334;BME280;27078;46.428;6.256;2023-03-25T04:04:40;96469.47;;;7.68;100.00
41334;BME280;27078;46.428;6.256;2023-03-25T04:10:14;96477.38;;;7.79;100.00
41334;BME280;27078;46.428;6.256;2023-03-25T04:12:51;96463.53;;;7.77;100.00
41334;BME280;27078;46.428;6.256;2023-03-25T04:15:18;96466.97;;;7.66;100.00
41334;BME280;27078;46.428;6.256;2023-03-25T04:17:44;96474.00;;;7.54;100.00
41334;BME280;27078;46.428;6.256;2023-03-25T04:20:13;96468.75;;;7.54;100.00
41334;BME280;27078;46.428;6.256;2023-03-25T04:22:39;96465.63;;;7.49;100.00
41334;BME280;27078;46.428;6.256;2023-03-25T04:25:10;96460.13;;;7.52;100.00
41334;BME280;27078;46.428;6.256;2023-03-25T04:27:36;96467.66;;;7.57;100.00
41334;BME280;27078;46.428;6.256;2023-03-25T04:30:06;96475.66;;;7.55;100.00
41334;BME280;27078;46.428;6.256;2023-03-25T04:32:32;96472.34;;;7.53;100.00
41334;BME280;27078;46.428;6.256;2023-03-25T04:34:57;96476.38;;;7.46;100.00
41334;BME280;27078;46.428;6.256;2023-03-25T04:37:23;96476.38;;;7.46;100.00
41334;BME280;27078;46.428;6.256;2023-03-25T04:39:50;96490.69;;;7.42;100.00
41334;BME280;27078;46.428;6.256;2023-03-25T04:42:15;96490.56;;;7.32;100.00
41334;BME280;27078;46.428;6.256;2023-03-25T04:44:42;96504.00;;;7.28;100.00
41334;BME280;27078;46.428;6.256;2023-03-25T04:47:11;96515.16;;;7.31;100.00
41334;BME280;27078;46.428;6.256;2023-03-25T04:49:39;96527.06;;;7.24;100.00
41334;BME280;27078;46.428;6.256;2023-03-25T04:52:06;96521.38;;;7.30;100.00
41334;BME280;27078;46.428;6.256;2023-03-25T04:54:33;96527.34;;;7.32;100.00
41334;BME280;27078;46.428;6.256;2023-03-25T04:56:58;96520.25;;;7.22;100.00
41334;BME280;27078;46.428;6.256;2023-03-25T04:59:24;96511.69;;;7.07;100.00
41334;BME280;27078;46.428;6.256;2023-03-25T05:01:51;96496.53;;;6.99;100.00
41334;BME280;27078;46.428;6.256;2023-03-25T05:04:17;96501.44;;;6.80;100.00
41334;BME280;27078;46.428;6.256;2023-03-25T05:06:47;96504.06;;;6.80;100.00
41334;BME280;27078;46.428;6.256;2023-03-25T05:09:16;96503.66;;;6.73;100.00
41334;BME280;27078;46.428;6.256;2023-03-25T05:11:43;96504.13;;;6.67;100.00
41334;BME280;27078;46.428;6.256;2023-03-25T05:14:11;96506.84;;;6.65;100.00
41334;BME280;27078;46.428;6.256;2023-03-25T05:16:37;96500.34;;;6.58;100.00
41334;BME280;27078;46.428;6.256;2023-03-25T05:19:03;96493.16;;;6.73;100.00
41334;BME280;27078;46.428;6.256;2023-03-25T05:21:31;96483.28;;;7.01;100.00
41334;BME280;27078;46.428;6.256;2023-03-25T05:23:56;96483.38;;;6.99;100.00
41334;BME280;27078;46.428;6.256;2023-03-25T05:26:23;96485.31;;;7.32;100.00
41334;BME280;27078;46.428;6.256;2023-03-25T05:28:49;96474.91;;;7.31;100.00
41334;BME280;27078;46.428;6.256;2023-03-25T05:31:16;96468.94;;;7.29;100.00
41334;BME280;27078;46.428;6.256;2023-03-25T05:33:41;96470.81;;;7.27;100.00
41334;BME280;27078;46.428;6.256;2023-03-25T05:36:13;96467.63;;;7.34;100.00
41334;BME280;27078;46.428;6.256;2023-03-25T05:38:40;96466.75;;;7.23;100.00
41334;BME280;27078;46.428;6.256;2023-03-25T05:41:07;96472.81;;;7.12;100.00
41334;BME280;27078;46.428;6.256;2023-03-25T05:43:36;96480.72;;;6.88;100.00
41334;BME280;27078;46.428;6.256;2023-03-25T05:46:01;96485.84;;;6.65;100.00
41334;BME280;27078;46.428;6.256;2023-03-25T05:48:28;96489.22;;;6.67;100.00
41334;BME280;27078;46.428;6.256;2023-03-25T05:50:56;96496.13;;;6.68;100.00
41334;BME280;27078;46.428;6.256;2023-03-25T05:53:22;96496.13;;;6.68;100.00
41334;BME280;27078;46.428;6.256;2023-03-25T05:55:47;96489.84;;;6.71;100.00
41334;BME280;27078;46.428;6.256;2023-03-25T05:58:16;96491.81;;;6.91;100.00
41334;BME280;27078;46.428;6.256;2023-03-25T06:00:42;96486.06;;;7.10;100.00
41334;BME280;27078;46.428;6.256;2023-03-25T06:03:08;96494.81;;;7.22;100.00
41334;BME280;27078;46.428;6.256;2023-03-25T06:05:34;96491.59;;;7.30;100.00
41334;BME280;27078;46.428;6.256;2023-03-25T06:07:59;96493.06;;;7.34;100.00
41334;BME280;27078;46.428;6.256;2023-03-25T06:10:26;96489.28;;;7.49;100.00
41334;BME280;27078;46.428;6.256;2023-03-25T06:12:51;96483.06;;;7.50;100.00
41334;BME280;27078;46.428;6.256;2023-03-25T06:15:18;96501.47;;;7.50;100.00
41334;BME280;27078;46.428;6.256;2023-03-25T06:17:57;96492.75;;;7.61;100.00
41334;BME280;27078;46.428;6.256;2023-03-25T06:20:23;96490.75;;;7.76;100.00
41334;BME280;27078;46.428;6.256;2023-03-25T06:22:48;96485.03;;;7.82;100.00
41334;BME280;27078;46.428;6.256;2023-03-25T06:25:16;96486.56;;;7.73;100.00
41334;BME280;27078;46.428;6.256;2023-03-25T06:27:43;96484.41;;;7.67;100.00
41334;BME280;27078;46.428;6.256;2023-03-25T06:30:12;96477.50;;;7.89;100.00
41334;BME280;27078;46.428;6.256;2023-03-25T06:32:37;96469.97;;;8.07;100.00
41334;BME280;27078;46.428;6.256;2023-03-25T06:35:04;96478.34;;;8.12;100.00
41334;BME280;27078;46.428;6.256;2023-03-25T06:37:32;96475.34;;;8.16;100.00
41334;BME280;27078;46.428;6.256;2023-03-25T06:39:57;96481.22;;;8.20;100.00
41334;BME280;27078;46.428;6.256;2023-03-25T06:42:26;96485.28;;;8.24;100.00
41334;BME280;27078;46.428;6.256;2023-03-25T06:44:53;96475.59;;;8.36;100.00
41334;BME280;27078;46.428;6.256;2023-03-25T06:47:19;96478.44;;;8.33;100.00
41334;BME280;27078;46.428;6.256;2023-03-25T06:49:45;96469.22;;;8.39;100.00
41334;BME280;27078;46.428;6.256;2023-03-25T06:52:11;96477.13;;;8.39;100.00
41334;BME280;27078;46.428;6.256;2023-03-25T06:54:36;96483.34;;;8.38;100.00
41334;BME280;27078;46.428;6.256;2023-03-25T06:57:02;96481.69;;;8.48;100.00
41334;BME280;27078;46.428;6.256;2023-03-25T06:59:28;96482.03;;;8.66;100.00
41334;BME280;27078;46.428;6.256;2023-03-25T07:01:53;96489.47;;;8.49;100.00
41334;BME280;27078;46.428;6.256;2023-03-25T07:04:18;96489.72;;;8.24;100.00
41334;BME280;27078;46.428;6.256;2023-03-25T07:06:44;96490.53;;;8.13;100.00
41334;BME280;27078;46.428;6.256;2023-03-25T07:09:09;96484.44;;;8.12;100.00
41334;BME280;27078;46.428;6.256;2023-03-25T07:11:35;96485.41;;;8.11;100.00
41334;BME280;27078;46.428;6.256;2023-03-25T07:14:00;96477.38;;;8.24;100.00
41334;BME280;27078;46.428;6.256;2023-03-25T07:16:26;96480.63;;;8.28;100.00
41334;BME280;27078;46.428;6.256;2023-03-25T07:18:51;96480.13;;;8.34;100.00
41334;BME280;27078;46.428;6.256;2023-03-25T07:21:18;96482.38;;;8.39;100.00
41334;BME280;27078;46.428;6.256;2023-03-25T07:23:44;96487.78;;;8.37;100.00
41334;BME280;27078;46.428;6.256;2023-03-25T07:26:10;96487.53;;;8.29;100.00
41334;BME280;27078;46.428;6.256;2023-03-25T07:28:37;96494.50;;;8.30;100.00
41334;BME280;27078;46.428;6.256;2023-03-25T07:31:07;96493.66;;;8.41;100.00
41334;BME280;27078;46.428;6.256;2023-03-25T07:33:33;96485.41;;;8.45;100.00
41334;BME280;27078;46.428;6.256;2023-03-25T07:35:58;96492.69;;;8.42;100.00
41334;BME280;27078;46.428;6.256;2023-03-25T07:38:23;96488.25;;;8.42;100.00
41334;BME280;27078;46.428;6.256;2023-03-25T07:40:49;96490.66;;;8.45;100.00
41334;BME280;27078;46.428;6.256;2023-03-25T07:43:14;96488.13;;;8.55;100.00
41334;BME280;27078;46.428;6.256;2023-03-25T07:45:40;96491.00;;;8.52;100.00
41334;BME280;27078;46.428;6.256;2023-03-25T07:48:05;96479.13;;;8.69;100.00
41334;BME280;27078;46.428;6.256;2023-03-25T07:50:37;96478.53;;;8.76;100.00
41334;BME280;27078;46.428;6.256;2023-03-25T07:53:03;96475.34;;;8.94;100.00
41334;BME280;27078;46.428;6.256;2023-03-25T07:55:28;96475.31;;;9.26;100.00
41334;BME280;27078;46.428;6.256;2023-03-25T07:57:54;96478.28;;;9.54;100.00
41334;BME280;27078;46.428;6.256;2023-03-25T08:00:20;96490.19;;;9.48;100.00
41334;BME280;27078;46.428;6.256;2023-03-25T08:02:46;96485.63;;;9.50;100.00
41334;BME280;27078;46.428;6.256;2023-03-25T08:05:11;96496.63;;;9.55;100.00
41334;BME280;27078;46.428;6.256;2023-03-25T08:07:49;96485.03;;;9.26;100.00
41334;BME280;27078;46.428;6.256;2023-03-25T08:10:15;96492.94;;;9.26;100.00
41334;BME280;27078;46.428;6.256;2023-03-25T08:12:42;96494.22;;;9.52;100.00
41334;BME280;27078;46.428;6.256;2023-03-25T08:15:08;96493.34;;;9.63;100.00
41334;BME280;27078;46.428;6.256;2023-03-25T08:17:34;96493.66;;;9.70;100.00
41334;BME280;27078;46.428;6.256;2023-03-25T08:19:59;96500.47;;;9.72;100.00
41334;BME280;27078;46.428;6.256;2023-03-25T08:22:26;96488.63;;;9.67;100.00
41334;BME280;27078;46.428;6.256;2023-03-25T08:24:52;96492.03;;;9.57;100.00
41334;BME280;27078;46.428;6.256;2023-03-25T08:27:17;96479.78;;;9.68;100.00
41334;BME280;27078;46.428;6.256;2023-03-25T08:29:44;96486.25;;;9.64;100.00
41334;BME280;27078;46.428;6.256;2023-03-25T08:32:11;96495.78;;;9.55;100.00
41334;BME280;27078;46.428;6.256;2023-03-25T08:34:37;96493.00;;;9.14;100.00
41334;BME280;27078;46.428;6.256;2023-03-25T08:37:05;96514.97;;;8.92;100.00
41334;BME280;27078;46.428;6.256;2023-03-25T08:39:31;96498.88;;;9.07;100.00
41334;BME280;27078;46.428;6.256;2023-03-25T08:42:07;96501.34;;;9.20;100.00
41334;BME280;27078;46.428;6.256;2023-03-25T08:44:32;96510.16;;;9.30;100.00
41334;BME280;27078;46.428;6.256;2023-03-25T08:46:58;96518.06;;;9.30;100.00
41334;BME280;27078;46.428;6.256;2023-03-25T08:49:23;96533.63;;;9.33;100.00
41334;BME280;27078;46.428;6.256;2023-03-25T08:51:48;96519.56;;;9.11;100.00
41334;BME280;27078;46.428;6.256;2023-03-25T08:54:13;96532.88;;;9.10;100.00
41334;BME280;27078;46.428;6.256;2023-03-25T08:56:39;96547.41;;;9.04;100.00
41334;BME280;27078;46.428;6.256;2023-03-25T08:59:04;96545.25;;;8.98;100.00
41334;BME280;27078;46.428;6.256;2023-03-25T09:01:30;96557.03;;;8.83;100.00
41334;BME280;27078;46.428;6.256;2023-03-25T09:03:55;96543.41;;;9.10;100.00
41334;BME280;27078;46.428;6.256;2023-03-25T09:06:22;96536.81;;;9.15;100.00
41334;BME280;27078;46.428;6.256;2023-03-25T09:08:47;96554.72;;;9.33;100.00
41334;BME280;27078;46.428;6.256;2023-03-25T09:11:12;96544.59;;;9.49;100.00
41334;BME280;27078;46.428;6.256;2023-03-25T09:13:40;96538.59;;;9.47;100.00
41334;BME280;27078;46.428;6.256;2023-03-25T09:16:06;96534.75;;;9.51;100.00
41334;BME280;27078;46.428;6.256;2023-03-25T09:18:31;96548.88;;;9.71;100.00
41334;BME280;27078;46.428;6.256;2023-03-25T09:20:58;96541.19;;;9.79;100.00
41334;BME280;27078;46.428;6.256;2023-03-25T09:23:24;96535.06;;;9.79;100.00
41334;BME280;27078;46.428;6.256;2023-03-25T09:25:50;96542.03;;;9.80;100.00
41334;BME280;27078;46.428;6.256;2023-03-25T09:28:15;96527.94;;;9.70;100.00
41334;BME280;27078;46.428;6.256;2023-03-25T09:30:41;96537.38;;;9.93;100.00
41334;BME280;27078;46.428;6.256;2023-03-25T09:33:06;96541.09;;;10.12;100.00
41334;BME280;27078;46.428;6.256;2023-03-25T09:35:32;96536.25;;;10.38;100.00
41334;BME280;27078;46.428;6.256;2023-03-25T09:37:57;96539.13;;;10.35;100.00
41334;BME280;27078;46.428;6.256;2023-03-25T09:40:22;96522.88;;;10.30;100.00
41334;BME280;27078;46.428;6.256;2023-03-25T09:45:51;96542.38;;;10.17;100.00
41334;BME280;27078;46.428;6.256;2023-03-25T09:48:36;96545.69;;;10.10;100.00
41334;BME280;27078;46.428;6.256;2023-03-25T09:51:03;96534.06;;;10.53;100.00
41334;BME280;27078;46.428;6.256;2023-03-25T09:53:43;96527.75;;;10.75;100.00
41334;BME280;27078;46.428;6.256;2023-03-25T09:56:17;96524.00;;;10.77;100.00
41334;BME280;27078;46.428;6.256;2023-03-25T09:58:45;96522.13;;;11.18;100.00
41334;BME280;27078;46.428;6.256;2023-03-25T10:01:19;96515.88;;;11.39;100.00
41334;BME280;27078;46.428;6.256;2023-03-25T10:06:25;96504.44;;;11.09;100.00
41334;BME280;27078;46.428;6.256;2023-03-25T10:11:42;96501.38;;;10.94;100.00
41334;BME280;27078;46.428;6.256;2023-03-25T10:14:32;96516.66;;;11.00;100.00
41334;BME280;27078;46.428;6.256;2023-03-25T10:17:13;96517.63;;;10.90;100.00
41334;BME280;27078;46.428;6.256;2023-03-25T10:22:31;96527.81;;;10.94;100.00
41334;BME280;27078;46.428;6.256;2023-03-25T10:25:03;96531.59;;;11.50;100.00
41334;BME280;27078;46.428;6.256;2023-03-25T10:27:34;96527.94;;;11.51;100.00
41334;BME280;27078;46.428;6.256;2023-03-25T10:30:12;96540.47;;;11.59;100.00
41334;BME280;27078;46.428;6.256;2023-03-25T10:33:04;96536.41;;;12.04;100.00
41334;BME280;27078;46.428;6.256;2023-03-25T10:35:39;96515.50;;;12.10;100.00
41334;BME280;27078;46.428;6.256;2023-03-25T10:38:20;96524.13;;;12.77;100.00
41334;BME280;27078;46.428;6.256;2023-03-25T10:40:50;96539.16;;;12.21;100.00
41334;BME280;27078;46.428;6.256;2023-03-25T10:43:38;96545.38;;;11.44;100.00
41334;BME280;27078;46.428;6.256;2023-03-25T10:49:20;96579.03;;;11.42;100.00
41334;BME280;27078;46.428;6.256;2023-03-25T10:51:49;96572.75;;;11.24;100.00
41334;BME280;27078;46.428;6.256;2023-03-25T10:54:20;96577.75;;;11.07;100.00
41334;BME280;27078;46.428;6.256;2023-03-25T10:56:49;96570.09;;;11.04;100.00
41334;BME280;27078;46.428;6.256;2023-03-25T10:59:35;96558.00;;;11.11;100.00
41334;BME280;27078;46.428;6.256;2023-03-25T11:02:17;96582.91;;;11.18;100.00
41334;BME280;27078;46.428;6.256;2023-03-25T11:04:45;96609.56;;;10.96;100.00
41334;BME280;27078;46.428;6.256;2023-03-25T11:07:18;96603.75;;;11.02;100.00
41334;BME280;27078;46.428;6.256;2023-03-25T11:09:45;96591.69;;;11.19;100.00
41334;BME280;27078;46.428;6.256;2023-03-25T11:12:10;96593.19;;;11.12;100.00
41334;BME280;27078;46.428;6.256;2023-03-25T11:14:38;96601.53;;;11.17;100.00
41334;BME280;27078;46.428;6.256;2023-03-25T11:17:10;96610.09;;;11.30;100.00
41334;BME280;27078;46.428;6.256;2023-03-25T11:19:57;96603.50;;;11.05;100.00
41334;BME280;27078;46.428;6.256;2023-03-25T11:22:29;96607.81;;;11.26;100.00
41334;BME280;27078;46.428;6.256;2023-03-25T11:25:26;96604.00;;;11.88;100.00
41334;BME280;27078;46.428;6.256;2023-03-25T11:28:01;96593.69;;;12.05;100.00
41334;BME280;27078;46.428;6.256;2023-03-25T11:30:28;96590.31;;;11.64;100.00
41334;BME280;27078;46.428;6.256;2023-03-25T11:35:25;96589.59;;;11.23;100.00
41334;BME280;27078;46.428;6.256;2023-03-25T11:37:57;96602.16;;;11.30;100.00
41334;BME280;27078;46.428;6.256;2023-03-25T11:40:23;96592.97;;;11.44;100.00
41334;BME280;27078;46.428;6.256;2023-03-25T11:42:52;96567.34;;;11.54;100.00
41334;BME280;27078;46.428;6.256;2023-03-25T11:45:35;96554.25;;;12.01;100.00
41334;BME280;27078;46.428;6.256;2023-03-25T11:48:17;96555.13;;;11.92;100.00
41334;BME280;27078;46.428;6.256;2023-03-25T11:50:48;96562.63;;;11.77;100.00
41334;BME280;27078;46.428;6.256;2023-03-25T11:53:18;96575.69;;;11.40;100.00
41334;BME280;27078;46.428;6.256;2023-03-25T11:55:46;96574.34;;;11.94;100.00
41334;BME280;27078;46.428;6.256;2023-03-25T11:58:16;96585.78;;;12.79;100.00
41334;BME280;27078;46.428;6.256;2023-03-25T12:00:50;96575.22;;;12.70;100.00
41334;BME280;27078;46.428;6.256;2023-03-25T12:03:20;96573.88;;;12.56;100.00
41334;BME280;27078;46.428;6.256;2023-03-25T12:06:15;96561.91;;;12.52;100.00
41334;BME280;27078;46.428;6.256;2023-03-25T12:08:43;96576.13;;;12.51;100.00
41334;BME280;27078;46.428;6.256;2023-03-25T12:11:17;96564.81;;;12.11;100.00
41334;BME280;27078;46.428;6.256;2023-03-25T12:13:50;96565.47;;;12.23;100.00
41334;BME280;27078;46.428;6.256;2023-03-25T12:16:55;96568.09;;;12.42;100.00
41334;BME280;27078;46.428;6.256;2023-03-25T12:21:49;96549.78;;;12.12;100.00
41334;BME280;27078;46.428;6.256;2023-03-25T12:24:27;96552.88;;;12.45;100.00
41334;BME280;27078;46.428;6.256;2023-03-25T12:29:45;96553.59;;;13.02;100.00
41334;BME280;27078;46.428;6.256;2023-03-25T13:00:12;96522.13;;;14.23;100.00
41334;BME280;27078;46.428;6.256;2023-03-25T13:05:39;96533.47;;;13.63;100.00
41334;BME280;27078;46.428;6.256;2023-03-25T13:10:54;96548.47;;;12.91;100.00
41334;BME280;27078;46.428;6.256;2023-03-25T13:13:22;96542.59;;;12.69;100.00
41334;BME280;27078;46.428;6.256;2023-03-25T13:18:39;96527.81;;;12.94;100.00
41334;BME280;27078;46.428;6.256;2023-03-25T13:23:37;96522.97;;;13.08;100.00
41334;BME280;27078;46.428;6.256;2023-03-25T13:26:18;96517.34;;;12.93;100.00
41334;BME280;27078;46.428;6.256;2023-03-25T13:28:58;96530.66;;;12.83;100.00
41334;BME280;27078;46.428;6.256;2023-03-25T13:31:28;96499.88;;;13.00;100.00
41334;BME280;27078;46.428;6.256;2023-03-25T13:42:46;96499.88;;;13.18;100.00
41334;BME280;27078;46.428;6.256;2023-03-25T13:45:18;96503.91;;;13.22;100.00
41334;BME280;27078;46.428;6.256;2023-03-25T13:48:21;96499.72;;;13.73;100.00
41334;BME280;27078;46.428;6.256;2023-03-25T13:50:52;96508.97;;;13.15;100.00
41334;BME280;27078;46.428;6.256;2023-03-25T13:53:28;96503.50;;;12.99;100.00
41334;BME280;27078;46.428;6.256;2023-03-25T13:58:55;96515.22;;;12.78;100.00
41334;BME280;27078;46.428;6.256;2023-03-25T14:01:47;96526.00;;;12.67;100.00
41334;BME280;27078;46.428;6.256;2023-03-25T14:12:45;96540.50;;;12.35;100.00
41334;BME280;27078;46.428;6.256;2023-03-25T14:17:54;96541.53;;;12.15;100.00
41334;BME280;27078;46.428;6.256;2023-03-25T14:20:26;96542.44;;;11.57;100.00
41334;BME280;27078;46.428;6.256;2023-03-25T14:23:00;96547.44;;;11.50;100.00
41334;BME280;27078;46.428;6.256;2023-03-25T14:25:56;96548.41;;;11.49;100.00
41334;BME280;27078;46.428;6.256;2023-03-25T14:28:34;96546.47;;;11.51;100.00
41334;BME280;27078;46.428;6.256;2023-03-25T14:36:31;96520.03;;;11.41;100.00
41334;BME280;27078;46.428;6.256;2023-03-25T14:44:31;96523.09;;;11.37;100.00
41334;BME280;27078;46.428;6.256;2023-03-25T14:47:24;96512.38;;;11.38;100.00
41334;BME280;27078;46.428;6.256;2023-03-25T14:49:51;96510.84;;;11.46;100.00
41334;BME280;27078;46.428;6.256;2023-03-25T14:54:58;96511.81;;;11.54;100.00
41334;BME280;27078;46.428;6.256;2023-03-25T14:57:28;96516.13;;;11.55;100.00
41334;BME280;27078;46.428;6.256;2023-03-25T15:00:02;96511.94;;;11.53;100.00
41334;BME280;27078;46.428;6.256;2023-03-25T15:02:34;96503.72;;;11.66;100.00
41334;BME280;27078;46.428;6.256;2023-03-25T15:05:17;96509.19;;;11.64;100.00
41334;BME280;27078;46.428;6.256;2023-03-25T15:07:56;96506.66;;;11.63;100.00
41334;BME280;27078;46.428;6.256;2023-03-25T15:10:33;96494.13;;;11.55;100.00
41334;BME280;27078;46.428;6.256;2023-03-25T15:16:04;96495.53;;;11.59;100.00
41334;BME280;27078;46.428;6.256;2023-03-25T15:21:10;96489.97;;;11.52;100.00
41334;BME280;27078;46.428;6.256;2023-03-25T15:23:45;96496.06;;;11.53;100.00
41334;BME280;27078;46.428;6.256;2023-03-25T15:26:18;96492.31;;;11.55;100.00
41334;BME280;27078;46.428;6.256;2023-03-25T15:28:58;96479.09;;;11.55;100.00
41334;BME280;27078;46.428;6.256;2023-03-25T15:31:33;96477.69;;;11.51;100.00
41334;BME280;27078;46.428;6.256;2023-03-25T15:48:47;96465.34;;;12.09;100.00
41334;BME280;27078;46.428;6.256;2023-03-25T15:51:36;96461.94;;;12.26;100.00
41334;BME280;27078;46.428;6.256;2023-03-25T15:54:29;96461.72;;;12.37;100.00
41334;BME280;27078;46.428;6.256;2023-03-25T15:57:00;96452.94;;;12.47;100.00
41334;BME280;27078;46.428;6.256;2023-03-25T16:01:59;96462.66;;;12.46;100.00